createdAt,value
2023-04-21T00:00:47.497Z,6.90
2023-04-21T00:06:01.765Z,6.60
2023-04-21T00:11:05.690Z,5.90
2023-04-21T00:16:09.254Z,6.20
2023-04-21T00:21:12.923Z,7.00
2023-04-21T00:26:16.444Z,6.60
2023-04-21T00:31:19.979Z,6.60
2023-04-21T00:36:25.221Z,6.50
2023-04-21T00:41:29.510Z,7.60
2023-04-21T00:46:34.163Z,7.20
2023-04-21T00:51:38.119Z,7.30
2023-04-21T00:56:41.531Z,7.40
2023-04-21T01:01:45.105Z,4.90
2023-04-21T01:06:48.979Z,7.80
2023-04-21T01:12:06.635Z,7.30
2023-04-21T01:17:10.817Z,8.20
2023-04-21T01:22:15.505Z,7.80
2023-04-21T01:27:20.656Z,7.80
2023-04-21T01:32:27.393Z,7.50
2023-04-21T01:37:32.805Z,9.30
2023-04-21T01:42:39.810Z,9.90
2023-04-21T01:47:43.122Z,9.60
2023-04-21T01:52:46.629Z,9.00
2023-04-21T01:57:50.035Z,9.10
2023-04-21T02:02:53.843Z,8.90
2023-04-21T02:07:57.276Z,9.50
2023-04-21T02:13:01.412Z,8.10
2023-04-21T02:18:04.977Z,8.40
2023-04-21T02:23:08.541Z,9.10
2023-04-21T02:28:12.156Z,9.00
2023-04-21T02:33:15.636Z,7.70
2023-04-21T02:38:19.291Z,8.40
2023-04-21T02:43:22.702Z,8.60
2023-04-21T02:48:27.138Z,9.00
2023-04-21T02:58:33.960Z,8.70
2023-04-21T03:03:37.606Z,8.70
2023-04-21T03:08:41.107Z,10.00
2023-04-21T03:13:44.625Z,11.90
2023-04-21T03:18:48.128Z,12.60
2023-04-21T03:23:53.713Z,10.60
2023-04-21T03:28:57.009Z,9.30
2023-04-21T03:34:00.620Z,10.10
2023-04-21T03:39:18.763Z,9.90
2023-04-21T03:44:26.442Z,8.30
2023-04-21T03:49:29.813Z,10.10
2023-04-21T03:54:33.319Z,7.70
2023-04-21T03:59:36.840Z,7.70
2023-04-21T04:04:40.601Z,6.50
2023-04-21T04:09:44.908Z,6.60
2023-04-21T04:14:48.256Z,7.20
2023-04-21T04:19:51.615Z,7.50
2023-04-21T04:24:55.547Z,7.30
2023-04-21T04:29:59.573Z,6.00
2023-04-21T04:35:03.117Z,7.50
2023-04-21T04:40:10.470Z,6.90
2023-04-21T04:45:14.205Z,6.50
2023-04-21T04:50:17.795Z,14.30
2023-04-21T04:55:22.412Z,22.20
2023-04-21T05:00:25.984Z,11.50
2023-04-21T05:05:29.398Z,8.10
2023-04-21T05:10:32.910Z,7.40
2023-04-21T05:15:36.335Z,6.90
2023-04-21T05:20:43.064Z,7.20
2023-04-21T05:25:46.764Z,5.40
2023-04-21T05:30:50.301Z,4.90
2023-04-21T05:35:54.149Z,5.20
2023-04-21T05:40:57.790Z,5.80
2023-04-21T05:46:02.150Z,3.90
2023-04-21T05:51:10.768Z,5.20
2023-04-21T05:56:14.924Z,4.90
2023-04-21T06:06:21.616Z,5.90
2023-04-21T06:11:25.136Z,6.20
2023-04-21T06:16:28.618Z,6.40
2023-04-21T06:21:33.083Z,6.40
2023-04-21T06:31:39.777Z,6.00
2023-04-21T06:36:43.536Z,5.50
2023-04-21T06:41:46.942Z,4.80
2023-04-21T06:46:50.682Z,5.30
2023-04-21T06:51:54.380Z,4.40
2023-04-21T06:56:57.806Z,5.10
2023-04-21T07:02:01.556Z,3.80
2023-04-21T07:07:05.136Z,4.30
2023-04-21T07:12:08.761Z,4.90
2023-04-21T07:17:12.206Z,4.20
2023-04-21T07:22:15.900Z,4.10
2023-04-21T07:27:19.712Z,4.50
2023-04-21T07:32:23.196Z,4.70
2023-04-21T07:37:27.461Z,4.80
2023-04-21T07:42:30.870Z,4.50
2023-04-21T07:47:34.907Z,4.00
2023-04-21T07:52:38.333Z,4.20
2023-04-21T07:57:42.135Z,3.20
2023-04-21T08:02:45.778Z,3.90
2023-04-21T08:07:49.375Z,3.00
2023-04-21T08:12:52.783Z,3.00
2023-04-21T08:17:56.342Z,2.80
2023-04-21T08:23:00.051Z,3.40
2023-04-21T08:28:03.569Z,3.10
2023-04-21T08:33:08.887Z,16.30
2023-04-21T08:38:12.612Z,4.90
2023-04-21T08:43:16.329Z,7.00
2023-04-21T08:48:22.315Z,3.20
2023-04-21T08:53:26.127Z,4.00
2023-04-21T08:58:29.951Z,4.80
2023-04-21T09:03:33.621Z,3.50
2023-04-21T09:13:46.642Z,3.30
2023-04-21T09:18:51.838Z,10.00
2023-04-21T09:23:57.977Z,3.60
2023-04-21T09:29:02.210Z,3.60
2023-04-21T09:34:21.461Z,2.20
2023-04-21T09:39:40.546Z,1.90
2023-04-21T09:44:56.298Z,3.00
2023-04-21T09:50:07.046Z,2.10
2023-04-21T09:55:13.965Z,10.10
2023-04-21T10:00:19.038Z,3.30
2023-04-21T10:05:23.073Z,5.20
2023-04-21T10:10:31.988Z,3.00
2023-04-21T10:15:39.514Z,2.90
2023-04-21T10:20:53.855Z,2.50
2023-04-21T10:26:17.436Z,1.80
2023-04-21T10:31:45.088Z,2.10
2023-04-21T10:36:54.782Z,2.40
2023-04-21T10:42:25.437Z,2.30
2023-04-21T10:47:46.585Z,1.90
2023-04-21T10:53:13.282Z,2.40
2023-04-21T10:58:17.057Z,2.10
2023-04-21T11:03:20.662Z,5.00
2023-04-21T11:08:25.206Z,2.20
2023-04-21T11:13:35.158Z,3.20
2023-04-21T11:18:44.203Z,1.50
2023-04-21T11:23:55.709Z,1.50
2023-04-21T11:29:08.543Z,1.40
2023-04-21T11:34:12.570Z,1.90
2023-04-21T11:44:42.852Z,1.90
2023-04-21T11:49:47.392Z,1.50
2023-04-21T11:55:05.864Z,2.30
2023-04-21T12:00:17.467Z,1.50
2023-04-21T12:05:20.939Z,2.80
2023-04-21T12:10:24.798Z,2.10
2023-04-21T12:15:30.640Z,2.10
2023-04-21T12:20:34.904Z,1.50
2023-04-21T12:25:38.516Z,1.80
2023-04-21T12:30:42.629Z,1.70
2023-04-21T12:35:46.554Z,1.40
2023-04-21T12:40:49.892Z,1.40
2023-04-21T12:53:05.122Z,1.40
2023-04-21T12:58:08.480Z,1.80
2023-04-21T13:08:16.996Z,2.10
2023-04-21T13:13:21.022Z,4.60
2023-04-21T13:18:24.444Z,2.30
2023-04-21T13:23:27.959Z,2.30
2023-04-21T13:33:35.392Z,2.90
2023-04-21T13:38:40.686Z,1.70
2023-04-21T13:43:44.274Z,1.70
2023-04-21T13:48:47.785Z,2.10
2023-04-21T13:53:51.410Z,1.60
2023-04-21T13:58:56.150Z,2.40
2023-04-21T14:03:59.843Z,1.20
2023-04-21T14:09:05.086Z,1.30
2023-04-21T14:14:10.111Z,1.30
2023-04-21T14:19:15.841Z,1.40
2023-04-21T14:24:19.360Z,1.60
2023-04-21T14:29:23.837Z,1.50
2023-04-21T14:34:27.274Z,1.00
2023-04-21T14:39:30.788Z,2.00
2023-04-21T14:44:35.916Z,1.30
2023-04-21T14:49:39.701Z,1.70
2023-04-21T14:54:43.276Z,1.70
2023-04-21T14:59:47.140Z,1.20
2023-04-21T15:04:50.945Z,5.20
2023-04-21T15:09:55.694Z,2.30
2023-04-21T15:14:59.559Z,2.30
2023-04-21T15:20:03.455Z,1.80
2023-04-21T15:25:07.386Z,3.30
2023-04-21T15:30:12.298Z,2.50
2023-04-21T15:35:15.656Z,3.80
2023-04-21T15:40:19.368Z,2.00
2023-04-21T15:45:22.988Z,2.00
2023-04-21T15:50:26.737Z,4.20
2023-04-21T15:55:30.831Z,2.20
2023-04-21T16:00:34.351Z,1.70
2023-04-21T16:05:38.109Z,1.90
2023-04-21T16:10:41.917Z,3.00
2023-04-21T16:15:46.088Z,1.50
2023-04-21T16:20:49.738Z,2.10
2023-04-21T16:25:53.475Z,1.70
2023-04-21T16:30:57.073Z,1.70
2023-04-21T16:36:00.729Z,1.40
2023-04-21T16:41:04.308Z,1.10
2023-04-21T16:46:07.675Z,1.40
2023-04-21T16:51:11.138Z,1.50
2023-04-21T16:56:15.175Z,2.00
2023-04-21T17:01:18.627Z,2.30
2023-04-21T17:06:22.295Z,2.50
2023-04-21T17:11:30.217Z,3.30
2023-04-21T17:16:33.980Z,4.30
2023-04-21T17:21:37.349Z,4.40
2023-04-21T17:26:41.081Z,5.40
2023-04-21T17:31:44.616Z,4.30
2023-04-21T17:36:48.405Z,4.00
2023-04-21T17:41:51.723Z,3.60
2023-04-21T17:46:55.232Z,3.20
2023-04-21T17:51:58.746Z,3.20
2023-04-21T17:57:02.673Z,3.20
2023-04-21T18:02:06.254Z,3.40
2023-04-21T18:07:10.116Z,2.70
2023-04-21T18:12:13.632Z,3.00
2023-04-21T18:17:17.756Z,2.60
2023-04-21T18:22:21.492Z,6.60
2023-04-21T18:27:25.503Z,6.60
2023-04-21T18:37:32.350Z,5.40
2023-04-21T18:42:35.849Z,3.40
2023-04-21T18:47:39.523Z,2.90
2023-04-21T18:52:43.602Z,2.40
2023-04-21T18:57:47.013Z,3.10
2023-04-21T19:02:51.620Z,2.80
2023-04-21T19:07:55.169Z,3.00
2023-04-21T19:12:58.583Z,2.70
2023-04-21T19:18:02.508Z,2.50
2023-04-21T19:23:06.134Z,2.20
2023-04-21T19:28:10.269Z,3.30
2023-04-21T19:33:14.013Z,3.30
2023-04-21T19:38:17.594Z,2.10
2023-04-21T19:43:21.873Z,2.60
2023-04-21T19:48:26.179Z,2.30
2023-04-21T20:03:42.816Z,3.60
2023-04-21T20:08:49.036Z,3.60
2023-04-21T20:13:52.369Z,4.10
2023-04-21T20:18:58.623Z,4.20
2023-04-21T20:24:02.955Z,3.30
2023-04-21T20:34:09.574Z,2.40
2023-04-21T20:39:14.564Z,2.40
2023-04-21T20:44:21.017Z,2.00
2023-04-21T20:49:24.605Z,2.30
2023-04-21T20:54:28.393Z,2.50
2023-04-21T20:59:31.766Z,2.40
2023-04-21T21:04:35.445Z,2.90
2023-04-21T21:09:39.093Z,2.50
2023-04-21T21:14:42.923Z,2.30
2023-04-21T21:19:46.458Z,2.30
2023-04-21T21:24:50.771Z,2.40
2023-04-21T21:29:54.287Z,2.60
2023-04-21T21:34:57.699Z,2.20
2023-04-21T21:40:01.230Z,1.90
2023-04-21T21:45:06.676Z,1.70
2023-04-21T21:50:11.690Z,1.40
2023-04-21T21:55:15.247Z,1.90
2023-04-21T22:00:19.073Z,1.90
2023-04-21T22:05:22.483Z,2.40
2023-04-21T22:10:26.202Z,1.30
2023-04-21T22:15:29.615Z,2.10
2023-04-21T22:20:33.132Z,3.70
2023-04-21T22:25:37.156Z,2.20
2023-04-21T22:30:40.678Z,1.80
2023-04-21T22:35:44.497Z,2.10
2023-04-21T22:40:47.909Z,1.20
2023-04-21T22:45:51.429Z,1.30
2023-04-21T22:50:55.868Z,1.50
2023-04-21T22:55:59.687Z,1.40
2023-04-21T23:01:03.312Z,1.90
2023-04-21T23:06:07.231Z,1.80
2023-04-21T23:11:10.743Z,2.60
2023-04-21T23:16:14.268Z,2.40
2023-04-21T23:21:17.881Z,3.30
2023-04-21T23:26:22.009Z,2.80
2023-04-21T23:31:26.369Z,2.70
2023-04-21T23:41:33.165Z,2.90
2023-04-21T23:46:37.261Z,4.20
2023-04-21T23:51:41.321Z,3.90
2023-04-21T23:56:44.842Z,3.40
